createdAt,value
2019-02-22T00:01:10.964Z,58.99
2019-02-22T00:03:39.803Z,59.57
2019-02-22T00:06:08.583Z,60.35
2019-02-22T00:08:37.378Z,60.30
2019-02-22T00:11:06.257Z,60.15
2019-02-22T00:13:35.136Z,60.28
2019-02-22T00:16:03.901Z,60.36
2019-02-22T00:18:32.697Z,60.11
2019-02-22T00:21:01.450Z,60.33
2019-02-22T00:23:30.216Z,59.99
2019-02-22T00:25:59.069Z,59.46
2019-02-22T00:28:28.009Z,59.11
2019-02-22T00:30:56.801Z,58.44
2019-02-22T00:33:25.668Z,58.66
2019-02-22T00:35:54.457Z,58.11
2019-02-22T00:38:23.276Z,58.12
2019-02-22T00:40:52.048Z,58.03
2019-02-22T00:43:20.820Z,57.95
2019-02-22T00:45:49.664Z,58.25
2019-02-22T00:48:18.513Z,57.35
2019-02-22T00:50:47.421Z,57.35
2019-02-22T00:53:16.223Z,57.15
2019-02-22T00:55:45.066Z,57.16
2019-02-22T00:58:13.836Z,57.10
2019-02-22T01:00:42.692Z,56.76
2019-02-22T01:03:11.531Z,57.47
2019-02-22T01:05:40.374Z,57.13
2019-02-22T01:08:09.142Z,57.29
2019-02-22T01:10:38.062Z,57.67
2019-02-22T01:13:06.848Z,57.28
2019-02-22T01:15:35.626Z,57.49
2019-02-22T01:18:04.465Z,56.83
2019-02-22T01:20:33.256Z,56.72
2019-02-22T01:23:02.025Z,56.45
2019-02-22T01:25:30.809Z,55.96
2019-02-22T01:27:59.580Z,55.93
2019-02-22T01:30:28.355Z,55.68
2019-02-22T01:32:57.113Z,56.04
2019-02-22T01:35:26.000Z,55.84
2019-02-22T01:37:54.761Z,55.83
2019-02-22T01:40:23.607Z,56.20
2019-02-22T01:42:52.392Z,55.94
2019-02-22T01:45:21.163Z,56.58
2019-02-22T01:47:50.008Z,56.47
2019-02-22T01:50:22.881Z,56.57
2019-02-22T01:52:51.639Z,56.70
2019-02-22T01:55:20.401Z,56.85
2019-02-22T01:57:49.187Z,56.79
2019-02-22T02:00:18.034Z,56.53
2019-02-22T02:02:46.887Z,56.63
2019-02-22T02:05:15.729Z,57.09
2019-02-22T02:07:44.590Z,57.32
2019-02-22T02:10:13.355Z,57.45
2019-02-22T02:12:42.132Z,57.60
2019-02-22T02:15:10.907Z,57.61
2019-02-22T02:17:39.689Z,57.64
2019-02-22T02:20:08.830Z,57.80
2019-02-22T02:22:37.594Z,58.03
2019-02-22T02:25:08.558Z,58.10
2019-02-22T02:27:37.332Z,58.56
2019-02-22T02:30:08.498Z,58.76
2019-02-22T02:32:37.311Z,59.02
2019-02-22T02:35:06.596Z,59.25
2019-02-22T02:37:35.449Z,58.99
2019-02-22T02:40:05.299Z,59.01
2019-02-22T02:42:34.126Z,58.47
2019-02-22T02:45:02.993Z,58.61
2019-02-22T02:47:31.757Z,58.63
2019-02-22T02:50:00.519Z,58.55
2019-02-22T02:52:29.286Z,58.48
2019-02-22T02:54:58.067Z,58.56
2019-02-22T02:57:26.845Z,58.42
2019-02-22T02:59:55.610Z,58.36
2019-02-22T03:02:25.253Z,58.50
2019-02-22T03:04:54.187Z,58.67
2019-02-22T03:07:42.217Z,58.81
2019-02-22T03:10:10.980Z,58.96
2019-02-22T03:12:39.753Z,59.12
2019-02-22T03:15:11.023Z,59.09
2019-02-22T03:17:39.859Z,59.23
2019-02-22T03:20:09.395Z,59.19
2019-02-22T03:22:38.237Z,59.07
2019-02-22T03:25:08.852Z,59.13
2019-02-22T03:27:37.616Z,59.46
2019-02-22T03:30:09.174Z,59.73
2019-02-22T03:32:37.959Z,59.74
2019-02-22T03:35:07.408Z,59.24
2019-02-22T03:37:36.185Z,58.96
2019-02-22T03:40:07.188Z,58.58
2019-02-22T03:42:36.017Z,58.54
2019-02-22T03:45:08.452Z,58.25
2019-02-22T03:47:37.227Z,58.30
2019-02-22T03:50:06.979Z,58.27
2019-02-22T03:52:37.392Z,58.10
2019-02-22T03:55:07.937Z,58.35
2019-02-22T03:57:36.705Z,58.03
2019-02-22T04:00:10.611Z,57.88
2019-02-22T04:02:39.383Z,57.64
2019-02-22T04:05:08.620Z,57.02
2019-02-22T04:07:37.389Z,56.93
2019-02-22T04:10:07.542Z,56.77
2019-02-22T04:12:36.354Z,56.84
2019-02-22T04:15:07.791Z,56.59
2019-02-22T04:17:36.615Z,56.42
2019-02-22T04:20:07.298Z,56.94
2019-02-22T04:22:36.127Z,56.99
2019-02-22T04:25:05.600Z,57.17
2019-02-22T04:27:34.537Z,57.37
2019-02-22T04:30:03.368Z,57.48
2019-02-22T04:32:32.126Z,57.71
2019-02-22T04:35:00.960Z,57.80
2019-02-22T04:37:29.781Z,57.92
2019-02-22T04:39:58.611Z,58.03
2019-02-22T04:42:27.420Z,58.16
2019-02-22T04:44:56.256Z,58.30
2019-02-22T04:47:25.027Z,58.25
2019-02-22T04:49:53.846Z,58.60
2019-02-22T04:52:22.707Z,58.79
2019-02-22T04:54:51.468Z,58.60
2019-02-22T04:57:20.304Z,58.50
2019-02-22T04:59:49.190Z,58.43
2019-02-22T05:02:17.962Z,58.18
2019-02-22T05:04:46.745Z,58.25
2019-02-22T05:07:15.527Z,58.09
2019-02-22T05:09:44.375Z,58.08
2019-02-22T05:12:13.134Z,58.23
2019-02-22T05:14:42.017Z,57.96
2019-02-22T05:17:10.955Z,57.56
2019-02-22T05:19:39.793Z,57.68
2019-02-22T05:22:08.674Z,57.82
2019-02-22T05:24:37.530Z,58.06
2019-02-22T05:27:06.385Z,58.19
2019-02-22T05:29:35.266Z,58.25
2019-02-22T05:32:04.374Z,58.51
2019-02-22T05:34:33.197Z,58.34
2019-02-22T05:37:02.152Z,58.08
2019-02-22T05:39:30.920Z,57.93
2019-02-22T05:41:59.700Z,57.48
2019-02-22T05:44:28.573Z,56.52
2019-02-22T05:47:00.430Z,56.37
2019-02-22T05:49:27.962Z,55.83
2019-02-22T05:51:56.889Z,55.37
2019-02-22T05:54:25.691Z,54.96
2019-02-22T05:56:55.295Z,55.06
2019-02-22T05:59:24.237Z,54.93
2019-02-22T06:01:53.104Z,54.96
2019-02-22T06:04:21.925Z,54.45
2019-02-22T06:06:50.679Z,54.50
2019-02-22T06:09:19.527Z,54.00
2019-02-22T06:11:48.438Z,53.37
2019-02-22T06:14:17.275Z,53.48
2019-02-22T06:16:46.058Z,52.69
2019-02-22T06:19:14.808Z,52.81
2019-02-22T06:21:43.642Z,53.00
2019-02-22T06:24:18.159Z,52.89
2019-02-22T06:26:46.930Z,52.96
2019-02-22T06:29:15.773Z,51.44
2019-02-22T06:31:44.528Z,50.60
2019-02-22T06:34:13.363Z,49.77
2019-02-22T06:36:42.125Z,49.33
2019-02-22T06:39:10.889Z,49.26
2019-02-22T06:41:40.235Z,49.28
2019-02-22T06:44:11.907Z,49.26
2019-02-22T06:46:40.652Z,48.74
2019-02-22T06:49:10.061Z,48.87
2019-02-22T06:51:39.419Z,48.26
2019-02-22T06:54:08.789Z,48.38
2019-02-22T06:56:38.199Z,47.83
2019-02-22T06:59:07.529Z,47.90
2019-02-22T07:01:36.879Z,47.67
2019-02-22T07:04:06.281Z,47.17
2019-02-22T07:06:35.615Z,47.00
2019-02-22T07:09:06.163Z,46.74
2019-02-22T07:11:37.964Z,46.32
2019-02-22T07:14:07.398Z,45.60
2019-02-22T07:16:36.764Z,44.78
2019-02-22T07:19:06.116Z,44.02
2019-02-22T07:21:44.024Z,43.14
2019-02-22T07:24:06.568Z,42.37
2019-02-22T07:26:35.914Z,41.09
2019-02-22T07:29:05.267Z,41.56
2019-02-22T07:31:34.702Z,41.06
2019-02-22T07:34:04.120Z,41.00
2019-02-22T07:36:33.466Z,40.54
2019-02-22T07:39:04.702Z,41.03
2019-02-22T07:41:34.040Z,40.65
2019-02-22T07:44:03.395Z,40.78
2019-02-22T07:46:32.752Z,41.65
2019-02-22T07:49:02.101Z,41.50
2019-02-22T07:51:31.474Z,41.24
2019-02-22T07:54:00.906Z,41.13
2019-02-22T07:56:30.347Z,40.98
2019-02-22T07:58:59.784Z,40.55
2019-02-22T08:01:29.147Z,40.82
2019-02-22T08:03:58.514Z,40.80
2019-02-22T08:06:27.877Z,40.43
2019-02-22T08:08:57.251Z,40.45
2019-02-22T08:11:26.623Z,40.90
2019-02-22T08:13:55.956Z,41.32
2019-02-22T08:16:25.375Z,41.54
2019-02-22T08:19:01.679Z,41.88
2019-02-22T08:21:25.887Z,42.05
2019-02-22T08:23:55.255Z,41.48
2019-02-22T08:26:24.705Z,41.64
2019-02-22T08:28:54.052Z,41.30
2019-02-22T08:31:23.460Z,40.96
2019-02-22T08:33:52.818Z,41.08
2019-02-22T08:36:22.184Z,39.89
2019-02-22T08:38:51.527Z,40.51
2019-02-22T08:41:20.964Z,40.16
2019-02-22T08:43:50.426Z,40.17
2019-02-22T08:46:19.860Z,39.98
2019-02-22T08:48:49.231Z,40.20
2019-02-22T08:51:18.580Z,40.22
2019-02-22T08:53:47.955Z,40.62
2019-02-22T08:56:17.322Z,40.44
2019-02-22T08:58:46.700Z,40.59
2019-02-22T09:01:16.071Z,40.71
2019-02-22T09:03:50.833Z,40.93
2019-02-22T09:06:16.633Z,40.83
2019-02-22T09:08:45.989Z,40.55
2019-02-22T09:11:15.433Z,40.66
2019-02-22T09:13:44.790Z,40.41
2019-02-22T09:16:14.170Z,40.55
2019-02-22T09:18:43.617Z,40.35
2019-02-22T09:21:12.959Z,40.73
2019-02-22T09:23:42.321Z,40.98
2019-02-22T09:26:11.687Z,40.67
2019-02-22T09:28:41.055Z,40.64
2019-02-22T09:31:10.410Z,40.77
2019-02-22T09:33:39.766Z,40.43
2019-02-22T09:36:09.147Z,40.58
2019-02-22T09:38:38.567Z,41.09
2019-02-22T09:41:07.931Z,40.72
2019-02-22T09:43:37.359Z,41.14
2019-02-22T09:46:06.768Z,41.09
2019-02-22T09:48:36.124Z,40.92
2019-02-22T09:51:05.551Z,40.93
2019-02-22T09:53:34.984Z,40.90
2019-02-22T09:56:04.345Z,40.55
2019-02-22T09:58:33.702Z,40.85
2019-02-22T10:01:03.048Z,40.72
2019-02-22T10:03:32.408Z,40.90
2019-02-22T10:06:01.778Z,41.06
2019-02-22T10:08:31.191Z,41.50
2019-02-22T10:11:00.554Z,41.33
2019-02-22T10:13:29.912Z,41.56
2019-02-22T10:15:59.332Z,41.76
2019-02-22T10:18:28.707Z,42.17
2019-02-22T10:20:58.139Z,42.32
2019-02-22T10:23:27.507Z,42.66
2019-02-22T10:25:56.929Z,42.62
2019-02-22T10:28:26.296Z,42.49
2019-02-22T10:30:55.644Z,43.01
2019-02-22T10:33:35.954Z,42.95
2019-02-22T10:35:56.265Z,43.22
2019-02-22T10:38:25.591Z,43.29
2019-02-22T10:40:54.959Z,43.50
2019-02-22T10:43:24.322Z,43.65
2019-02-22T10:45:53.702Z,43.41
2019-02-22T10:48:23.057Z,43.25
2019-02-22T10:50:52.480Z,43.70
2019-02-22T10:53:21.820Z,44.39
2019-02-22T10:55:51.254Z,44.82
2019-02-22T10:58:20.626Z,45.05
2019-02-22T11:00:49.980Z,45.50
2019-02-22T11:03:19.342Z,46.13
2019-02-22T11:05:48.754Z,46.38
2019-02-22T11:08:18.220Z,46.59
2019-02-22T11:10:47.677Z,47.23
2019-02-22T11:13:17.032Z,47.06
2019-02-22T11:15:46.443Z,47.24
2019-02-22T11:18:15.999Z,47.42
2019-02-22T11:20:45.357Z,47.46
2019-02-22T11:23:14.789Z,47.41
2019-02-22T11:25:44.155Z,47.37
2019-02-22T11:28:13.583Z,47.42
2019-02-22T11:30:42.962Z,47.56
2019-02-22T11:33:12.320Z,47.37
2019-02-22T11:35:41.666Z,46.63
2019-02-22T11:38:11.078Z,46.34
2019-02-22T11:40:40.412Z,45.63
2019-02-22T11:43:09.845Z,44.80
2019-02-22T11:45:39.215Z,44.69
2019-02-22T11:48:09.537Z,44.52
2019-02-22T11:50:38.999Z,44.46
2019-02-22T11:53:08.360Z,44.26
2019-02-22T11:55:37.801Z,44.64
2019-02-22T11:58:07.184Z,44.15
2019-02-22T12:00:36.545Z,44.01
2019-02-22T12:03:21.248Z,44.31
2019-02-22T12:05:37.442Z,44.66
2019-02-22T12:08:06.789Z,44.74
2019-02-22T12:10:36.229Z,45.30
2019-02-22T12:13:05.662Z,45.64
2019-02-22T12:15:35.087Z,45.95
2019-02-22T12:18:04.428Z,46.06
2019-02-22T12:20:33.892Z,45.83
2019-02-22T12:23:03.247Z,45.38
2019-02-22T12:25:32.596Z,45.59
2019-02-22T12:28:01.964Z,45.90
2019-02-22T12:30:31.385Z,46.11
2019-02-22T12:33:00.746Z,46.75
2019-02-22T12:35:30.178Z,46.76
2019-02-22T12:37:59.530Z,47.04
2019-02-22T12:40:28.899Z,47.70
2019-02-22T12:42:58.273Z,47.82
2019-02-22T12:45:27.616Z,48.03
2019-02-22T12:47:56.991Z,48.53
2019-02-22T12:50:26.336Z,49.09
2019-02-22T12:52:55.705Z,49.89
2019-02-22T12:55:25.068Z,49.76
2019-02-22T12:57:54.430Z,50.87
2019-02-22T13:00:23.775Z,50.88
2019-02-22T13:03:01.620Z,51.65
2019-02-22T13:05:29.669Z,51.48
2019-02-22T13:07:59.095Z,52.90
2019-02-22T13:10:28.455Z,53.98
2019-02-22T13:12:57.820Z,56.01
2019-02-22T13:15:27.262Z,56.89
2019-02-22T13:17:56.627Z,57.95
2019-02-22T13:20:26.030Z,58.27
2019-02-22T13:22:55.518Z,58.67
2019-02-22T13:25:24.902Z,59.71
2019-02-22T13:27:54.260Z,59.60
2019-02-22T13:30:23.643Z,58.15
2019-02-22T13:32:52.999Z,58.68
2019-02-22T13:35:22.359Z,58.00
2019-02-22T13:37:51.778Z,58.68
2019-02-22T13:40:21.139Z,58.76
2019-02-22T13:42:50.612Z,58.63
2019-02-22T13:45:26.484Z,58.70
2019-02-22T13:47:51.138Z,58.50
2019-02-22T13:50:20.582Z,56.85
2019-02-22T13:52:50.012Z,57.22
2019-02-22T13:55:19.367Z,56.44
2019-02-22T13:57:48.729Z,55.66
2019-02-22T14:00:19.073Z,55.69
2019-02-22T14:02:48.426Z,55.43
2019-02-22T14:05:17.894Z,55.50
2019-02-22T14:07:57.007Z,55.47
2019-02-22T14:10:26.779Z,55.25
2019-02-22T14:12:56.091Z,55.21
2019-02-22T14:15:25.451Z,54.92
2019-02-22T14:17:56.536Z,54.72
2019-02-22T14:20:25.911Z,55.76
2019-02-22T14:22:55.286Z,56.30
2019-02-22T14:25:24.707Z,55.56
2019-02-22T14:27:54.066Z,56.04
2019-02-22T14:30:23.442Z,56.05
2019-02-22T14:32:52.803Z,56.24
2019-02-22T14:35:22.187Z,55.75
2019-02-22T14:37:51.633Z,55.63
2019-02-22T14:40:21.048Z,55.57
2019-02-22T14:42:50.477Z,55.52
2019-02-22T14:45:19.868Z,55.36
2019-02-22T14:47:49.226Z,55.95
2019-02-22T14:50:23.278Z,56.38
2019-02-22T14:52:52.639Z,57.27
2019-02-22T14:55:22.044Z,56.64
2019-02-22T14:57:51.414Z,57.00
2019-02-22T15:00:21.184Z,57.44
2019-02-22T15:02:50.565Z,58.05
2019-02-22T15:05:19.930Z,57.61
2019-02-22T15:07:49.366Z,58.47
2019-02-22T15:10:19.133Z,58.03
2019-02-22T15:12:48.603Z,58.57
2019-02-22T15:15:19.847Z,59.42
2019-02-22T15:17:59.894Z,58.98
2019-02-22T15:20:29.255Z,59.18
2019-02-22T15:22:58.619Z,59.00
2019-02-22T15:25:27.968Z,59.38
2019-02-22T15:27:57.409Z,59.75
2019-02-22T15:30:26.850Z,59.79
2019-02-22T15:32:56.265Z,59.74
2019-02-22T15:35:25.639Z,61.00
2019-02-22T15:37:55.009Z,61.64
2019-02-22T15:40:24.383Z,62.69
2019-02-22T15:42:53.736Z,62.39
2019-02-22T15:45:23.125Z,63.22
2019-02-22T15:47:52.436Z,62.28
2019-02-22T15:50:21.816Z,61.87
2019-02-22T15:52:51.248Z,63.09
2019-02-22T15:55:20.694Z,63.17
2019-02-22T15:57:50.045Z,62.91
2019-02-22T16:00:28.396Z,63.30
2019-02-22T16:02:57.728Z,64.19
2019-02-22T16:05:28.727Z,65.13
2019-02-22T16:07:58.137Z,66.03
2019-02-22T16:10:27.577Z,66.50
2019-02-22T16:12:57.053Z,66.69
2019-02-22T16:15:26.543Z,66.84
2019-02-22T16:17:56.064Z,67.17
2019-02-22T16:20:25.433Z,67.24
2019-02-22T16:22:54.787Z,67.52
2019-02-22T16:25:24.230Z,67.77
2019-02-22T16:27:53.599Z,67.93
2019-02-22T16:30:24.621Z,66.99
2019-02-22T16:32:54.087Z,67.58
2019-02-22T16:35:23.491Z,68.23
2019-02-22T16:37:52.945Z,70.12
2019-02-22T16:40:22.344Z,68.60
2019-02-22T16:42:51.902Z,69.61
2019-02-22T16:45:21.313Z,70.50
2019-02-22T16:47:50.819Z,70.02
2019-02-22T16:50:20.204Z,71.21
2019-02-22T16:52:49.654Z,70.89
2019-02-22T16:55:19.053Z,70.98
2019-02-22T16:57:48.479Z,71.95
2019-02-22T17:00:17.950Z,71.53
2019-02-22T17:02:47.346Z,72.40
2019-02-22T17:05:17.297Z,72.64
2019-02-22T17:07:46.678Z,73.72
2019-02-22T17:10:16.061Z,73.04
2019-02-22T17:12:45.518Z,73.40
2019-02-22T17:15:15.292Z,74.00
2019-02-22T17:17:44.774Z,73.93
2019-02-22T17:20:15.105Z,73.24
2019-02-22T17:22:44.588Z,74.17
2019-02-22T17:25:18.964Z,73.50
2019-02-22T17:27:48.390Z,74.68
2019-02-22T17:30:19.768Z,74.33
2019-02-22T17:32:49.219Z,73.63
2019-02-22T17:35:18.679Z,74.62
2019-02-22T17:37:48.174Z,75.02
2019-02-22T17:40:20.489Z,75.68
2019-02-22T17:42:49.919Z,75.29
2019-02-22T17:45:19.370Z,75.15
2019-02-22T17:47:48.820Z,75.26
2019-02-22T17:50:18.271Z,76.08
2019-02-22T17:52:48.086Z,75.84
2019-02-22T17:55:17.561Z,76.31
2019-02-22T17:57:47.001Z,76.14
2019-02-22T18:00:18.741Z,76.32
2019-02-22T18:02:48.208Z,75.97
2019-02-22T18:05:17.643Z,76.46
2019-02-22T18:07:47.092Z,75.36
2019-02-22T18:10:16.595Z,76.29
2019-02-22T18:12:46.066Z,76.16
2019-02-22T18:15:19.186Z,75.79
2019-02-22T18:17:48.778Z,77.16
2019-02-22T18:20:19.759Z,76.81
2019-02-22T18:22:49.208Z,76.74
2019-02-22T18:25:18.675Z,77.28
2019-02-22T18:27:48.233Z,76.80
2019-02-22T18:30:20.445Z,77.76
2019-02-22T18:32:49.890Z,77.41
2019-02-22T18:35:19.363Z,77.85
2019-02-22T18:37:58.979Z,77.50
2019-02-22T18:40:28.425Z,78.25
2019-02-22T18:42:57.864Z,78.04
2019-02-22T18:45:27.325Z,78.04
2019-02-22T18:47:56.862Z,78.23
2019-02-22T18:50:26.283Z,77.45
2019-02-22T18:52:55.775Z,78.19
2019-02-22T18:55:25.284Z,78.31
2019-02-22T18:57:54.938Z,77.84
2019-02-22T19:00:23.765Z,78.18
2019-02-22T19:02:53.244Z,77.79
2019-02-22T19:05:24.462Z,77.83
2019-02-22T19:07:54.036Z,77.37
2019-02-22T19:10:23.462Z,77.09
2019-02-22T19:12:52.863Z,76.98
2019-02-22T19:15:21.756Z,76.50
2019-02-22T19:17:51.224Z,76.81
2019-02-22T19:20:21.313Z,77.43
2019-02-22T19:22:50.703Z,76.92
2019-02-22T19:25:19.534Z,77.27
2019-02-22T19:27:48.371Z,76.87
2019-02-22T19:30:22.577Z,76.97
2019-02-22T19:32:51.367Z,77.44
2019-02-22T19:35:21.778Z,78.33
2019-02-22T19:37:50.650Z,77.44
2019-02-22T19:40:23.894Z,78.07
2019-02-22T19:42:52.714Z,78.02
2019-02-22T19:45:21.570Z,77.82
2019-02-22T19:47:51.854Z,77.56
2019-02-22T19:50:20.654Z,78.07
2019-02-22T19:52:49.481Z,77.75
2019-02-22T19:55:18.884Z,77.92
2019-02-22T19:57:48.307Z,78.20
2019-02-22T20:00:19.164Z,78.30
2019-02-22T20:02:47.926Z,79.25
2019-02-22T20:05:16.912Z,78.61
2019-02-22T20:07:46.267Z,78.31
2019-02-22T20:10:22.592Z,78.59
2019-02-22T20:12:51.440Z,78.30
2019-02-22T20:15:20.304Z,78.02
2019-02-22T20:17:54.405Z,78.28
2019-02-22T20:20:21.532Z,78.04
2019-02-22T20:22:50.446Z,77.86
2019-02-22T20:25:19.297Z,77.17
2019-02-22T20:27:49.693Z,77.52
2019-02-22T20:30:19.383Z,76.18
2019-02-22T20:32:48.197Z,76.47
2019-02-22T20:35:27.201Z,76.88
2019-02-22T20:37:55.965Z,76.52
2019-02-22T20:40:25.332Z,77.34
2019-02-22T20:42:54.824Z,77.73
2019-02-22T20:45:23.783Z,75.85
2019-02-22T20:47:52.568Z,76.47
2019-02-22T20:50:21.435Z,76.62
2019-02-22T20:52:50.268Z,75.70
2019-02-22T20:55:19.057Z,75.55
2019-02-22T20:57:48.119Z,76.49
2019-02-22T21:00:19.829Z,76.08
2019-02-22T21:02:48.671Z,75.38
2019-02-22T21:05:18.211Z,75.24
2019-02-22T21:07:47.139Z,75.92
2019-02-22T21:10:17.737Z,75.27
2019-02-22T21:12:47.100Z,76.26
2019-02-22T21:15:15.938Z,76.32
2019-02-22T21:17:44.706Z,75.99
2019-02-22T21:20:16.063Z,78.22
2019-02-22T21:22:44.838Z,78.10
2019-02-22T21:25:13.713Z,76.35
2019-02-22T21:27:42.552Z,77.78
2019-02-22T21:30:14.001Z,78.30
2019-02-22T21:32:42.834Z,79.32
2019-02-22T21:35:11.596Z,78.70
2019-02-22T21:37:41.744Z,78.71
2019-02-22T21:40:11.686Z,80.98
2019-02-22T21:42:40.501Z,81.33
2019-02-22T21:45:11.517Z,82.22
2019-02-22T21:47:40.339Z,82.54
2019-02-22T21:50:11.520Z,81.94
2019-02-22T21:52:40.348Z,82.87
2019-02-22T21:55:13.150Z,83.42
2019-02-22T21:57:41.914Z,84.07
2019-02-22T22:00:16.623Z,84.32
2019-02-22T22:02:45.401Z,84.47
2019-02-22T22:05:14.213Z,84.97
2019-02-22T22:07:43.020Z,85.12
2019-02-22T22:10:11.889Z,85.25
2019-02-22T22:12:40.677Z,85.20
2019-02-22T22:15:13.875Z,85.45
2019-02-22T22:17:42.621Z,85.67
2019-02-22T22:20:11.474Z,85.55
2019-02-22T22:22:40.552Z,85.97
2019-02-22T22:25:11.912Z,86.21
2019-02-22T22:27:40.675Z,86.80
2019-02-22T22:30:12.383Z,86.17
2019-02-22T22:32:41.150Z,86.21
2019-02-22T22:35:14.977Z,86.79
2019-02-22T22:37:43.755Z,87.18
2019-02-22T22:40:12.610Z,87.11
2019-02-22T22:42:41.445Z,87.11
2019-02-22T22:45:12.170Z,87.06
2019-02-22T22:47:41.014Z,87.17
2019-02-22T22:50:11.490Z,87.09
2019-02-22T22:52:40.250Z,87.33
2019-02-22T22:55:10.378Z,87.05
2019-02-22T22:57:39.167Z,87.13
2019-02-22T23:00:35.665Z,87.08
2019-02-22T23:03:04.612Z,87.05
2019-02-22T23:05:33.941Z,86.73
2019-02-22T23:08:02.751Z,87.32
2019-02-22T23:10:31.575Z,87.48
2019-02-22T23:13:00.454Z,87.39
2019-02-22T23:15:29.278Z,87.39
2019-02-22T23:17:58.112Z,87.25
2019-02-22T23:20:26.904Z,87.26
2019-02-22T23:22:55.743Z,87.26
2019-02-22T23:25:24.487Z,87.46
2019-02-22T23:27:53.316Z,87.51
2019-02-22T23:30:22.075Z,87.51
2019-02-22T23:32:50.967Z,87.54
2019-02-22T23:35:19.808Z,87.73
2019-02-22T23:37:48.654Z,87.53
2019-02-22T23:40:17.507Z,87.35
2019-02-22T23:42:46.272Z,87.09
2019-02-22T23:45:15.065Z,87.49
2019-02-22T23:47:43.831Z,87.49
2019-02-22T23:50:12.655Z,87.65
2019-02-22T23:52:41.532Z,87.35
2019-02-22T23:55:10.366Z,87.35
2019-02-22T23:57:39.145Z,87.05
